Portada
METAR-TAF:

METAR-TAF

Aeropuertos :

Annecy, Francia

latitud: 45-55-45N, longitud: 006-05-56E, altitud: 463 m

Observación

El informe se hizo hace 29 minutos, a las 11:30 UTC
Viento 1 kt con dirección variable
Temperatura 9°C
Humedad 57%
Presión 1024 hPa
Visibilidad 10 km o más
sin nubes por debajo de 1500 m y sin presencia de cumulonimbus.

METAR: LFLP 201130Z AUTO VRB01KT CAVOK 09/01 Q1024 NOSIG

Hora: 12:59 (11:59 UTC)

Pronóstico

El informe se hizo hace 3 horas y 59 minutos, a las 08:00 UTC
Pronóstico válido del 20 a las 09 UTC al 21 a las 09 UTC
Viento 4 kt con dirección variable
Visibilidad 10 km o más
sin nubes por debajo de 1500 m y sin presencia de cumulonimbus.
Temporalmente
del 21 a las 00 UTC al 21 a las 05 UTC
Cielo nuboso a una altura de 3000 ft
lluvia ligera

TAF: LFLP 200800Z 2009/2109 VRB04KT CAVOK TEMPO 2100/2105 -RA BKN030

Observaciones y pronósticos meteorológicos de más de 4000 aeropuertos (mensajes METAR y TAF).

Los puntos amarillos y rojos representan las estaciones disponibles.

Ponga el ratón en el punto deseado para ver el nombre de la estación.

Haga clic para ver las observaciones y los pronósticos meteorológicos.

Para cambiar el mapa : haga clic en los botones verdes con una cruz de color negro para hacer un zoom, en el botón verde con un guión para alejar o en las flechas verdes para mapas adyacentes.


METAR-TAF: